createdAt,value
2017-08-28T00:01:22.746Z,48.12
2017-08-28T00:03:51.088Z,48.24
2017-08-28T00:06:19.443Z,48.40
2017-08-28T00:08:47.887Z,48.11
2017-08-28T00:11:16.214Z,48.04
2017-08-28T00:13:44.640Z,47.98
2017-08-28T00:16:12.971Z,48.12
2017-08-28T00:18:41.302Z,48.14
2017-08-28T00:21:09.970Z,48.14
2017-08-28T00:23:38.329Z,48.18
2017-08-28T00:26:06.659Z,48.24
2017-08-28T00:28:35.026Z,48.20
2017-08-28T00:31:03.526Z,48.21
2017-08-28T00:33:31.858Z,48.18
2017-08-28T00:36:00.195Z,48.04
2017-08-28T00:38:28.530Z,48.23
2017-08-28T00:40:56.911Z,48.40
2017-08-28T00:43:25.273Z,48.43
2017-08-28T00:45:53.596Z,48.21
2017-08-28T00:48:22.023Z,48.28
2017-08-28T00:50:50.398Z,48.27
2017-08-28T00:53:18.828Z,48.53
2017-08-28T00:55:47.203Z,48.43
2017-08-28T00:58:15.603Z,48.42
2017-08-28T01:00:43.962Z,48.44
2017-08-28T01:03:12.361Z,48.61
2017-08-28T01:05:40.750Z,48.66
2017-08-28T01:08:09.088Z,48.65
2017-08-28T01:10:37.422Z,48.57
2017-08-28T01:13:05.823Z,48.56
2017-08-28T01:15:34.230Z,48.59
2017-08-28T01:18:02.610Z,48.65
2017-08-28T01:20:30.986Z,48.60
2017-08-28T01:22:59.310Z,48.70
2017-08-28T01:25:27.646Z,48.73
2017-08-28T01:27:55.990Z,48.72
2017-08-28T01:30:24.323Z,48.74
2017-08-28T01:32:52.710Z,48.70
2017-08-28T01:35:21.043Z,48.67
2017-08-28T01:37:49.427Z,48.67
2017-08-28T01:40:17.928Z,48.69
2017-08-28T01:42:46.346Z,48.82
2017-08-28T01:45:14.707Z,48.88
2017-08-28T01:47:43.098Z,49.02
2017-08-28T01:50:11.430Z,48.85
2017-08-28T01:52:39.778Z,48.85
2017-08-28T01:55:08.163Z,48.88
2017-08-28T01:57:36.538Z,49.08
2017-08-28T02:00:04.990Z,49.32
2017-08-28T02:02:33.342Z,49.06
2017-08-28T02:05:01.806Z,49.07
2017-08-28T02:07:30.170Z,49.07
2017-08-28T02:09:58.502Z,49.05
2017-08-28T02:12:26.833Z,49.25
2017-08-28T02:14:55.281Z,49.19
2017-08-28T02:17:23.690Z,49.06
2017-08-28T02:19:52.030Z,49.09
2017-08-28T02:22:20.378Z,49.32
2017-08-28T02:24:48.759Z,49.30
2017-08-28T02:27:17.162Z,49.18
2017-08-28T02:29:45.498Z,49.33
2017-08-28T02:32:13.934Z,49.40
2017-08-28T02:34:42.330Z,49.34
2017-08-28T02:37:10.719Z,49.35
2017-08-28T02:39:39.103Z,49.33
2017-08-28T02:42:07.498Z,49.38
2017-08-28T02:44:35.936Z,49.29
2017-08-28T02:47:04.267Z,49.33
2017-08-28T02:49:32.662Z,49.26
2017-08-28T02:52:00.988Z,49.22
2017-08-28T02:54:29.507Z,49.26
2017-08-28T02:56:57.951Z,49.47
2017-08-28T02:59:26.302Z,49.32
2017-08-28T03:01:54.638Z,49.37
2017-08-28T03:04:22.988Z,49.54
2017-08-28T03:06:51.327Z,49.54
2017-08-28T03:09:19.656Z,49.53
2017-08-28T03:11:48.122Z,49.61
2017-08-28T03:14:16.464Z,49.56
2017-08-28T03:16:44.873Z,49.32
2017-08-28T03:19:13.267Z,50.10
2017-08-28T03:21:41.590Z,49.83
2017-08-28T03:24:09.953Z,49.89
2017-08-28T03:26:38.311Z,49.70
2017-08-28T03:29:06.736Z,49.35
2017-08-28T03:31:35.126Z,49.35
2017-08-28T03:34:03.518Z,49.46
2017-08-28T03:36:31.854Z,49.65
2017-08-28T03:39:00.195Z,49.42
2017-08-28T03:41:28.521Z,49.60
2017-08-28T03:43:56.858Z,49.79
2017-08-28T03:46:25.198Z,49.63
2017-08-28T03:48:53.539Z,49.25
2017-08-28T03:51:21.876Z,49.32
2017-08-28T03:53:50.210Z,49.48
2017-08-28T03:56:18.654Z,49.31
2017-08-28T03:58:46.974Z,49.12
2017-08-28T04:01:15.467Z,49.19
2017-08-28T04:03:43.786Z,49.11
2017-08-28T04:06:12.128Z,49.19
2017-08-28T04:08:40.485Z,49.28
2017-08-28T04:11:08.810Z,49.19
2017-08-28T04:13:37.259Z,48.88
2017-08-28T04:16:05.590Z,48.99
2017-08-28T04:18:33.981Z,48.74
2017-08-28T04:21:02.306Z,48.68
2017-08-28T04:23:30.662Z,48.63
2017-08-28T04:25:58.995Z,48.72
2017-08-28T04:28:27.328Z,48.54
2017-08-28T04:30:55.658Z,48.71
2017-08-28T04:33:24.084Z,48.61
2017-08-28T04:35:52.424Z,48.78
2017-08-28T04:38:20.758Z,48.84
2017-08-28T04:40:49.094Z,48.68
2017-08-28T04:43:17.435Z,48.58
2017-08-28T04:45:45.826Z,48.50
2017-08-28T04:48:14.159Z,48.45
2017-08-28T04:50:42.503Z,48.54
2017-08-28T04:53:10.839Z,48.44
2017-08-28T04:55:39.247Z,48.54
2017-08-28T04:58:07.600Z,48.55
2017-08-28T05:00:35.939Z,48.69
2017-08-28T05:03:04.306Z,48.44
2017-08-28T05:05:32.648Z,48.40
2017-08-28T05:08:01.164Z,48.48
2017-08-28T05:10:29.497Z,48.52
2017-08-28T05:12:57.923Z,48.48
2017-08-28T05:15:26.318Z,48.58
2017-08-28T05:17:54.699Z,48.43
2017-08-28T05:20:23.095Z,48.38
2017-08-28T05:22:51.482Z,48.37
2017-08-28T05:25:19.859Z,48.54
2017-08-28T05:27:48.267Z,48.55
2017-08-28T05:30:16.645Z,48.24
2017-08-28T05:32:45.051Z,47.78
2017-08-28T05:35:13.383Z,47.51
2017-08-28T05:37:41.732Z,47.10
2017-08-28T05:40:10.124Z,46.96
2017-08-28T05:42:38.487Z,46.84
2017-08-28T05:45:06.902Z,46.85
2017-08-28T05:47:35.240Z,46.76
2017-08-28T05:50:03.588Z,46.44
2017-08-28T05:52:31.966Z,46.33
2017-08-28T05:55:00.392Z,46.18
2017-08-28T05:57:28.761Z,45.64
2017-08-28T05:59:57.096Z,46.07
2017-08-28T06:02:25.431Z,45.65
2017-08-28T06:04:53.775Z,45.55
2017-08-28T06:07:22.222Z,45.62
2017-08-28T06:09:50.618Z,45.10
2017-08-28T06:12:19.015Z,44.90
2017-08-28T06:14:47.422Z,44.47
2017-08-28T06:17:15.751Z,44.34
2017-08-28T06:19:44.095Z,44.22
2017-08-28T06:22:12.434Z,44.01
2017-08-28T06:24:40.768Z,43.82
2017-08-28T06:27:09.107Z,44.13
2017-08-28T06:29:37.445Z,43.61
2017-08-28T06:32:05.939Z,43.36
2017-08-28T06:34:34.302Z,43.17
2017-08-28T06:37:02.738Z,42.78
2017-08-28T06:39:31.218Z,42.92
2017-08-28T06:41:59.551Z,42.45
2017-08-28T06:44:27.895Z,42.23
2017-08-28T06:46:56.238Z,42.30
2017-08-28T06:49:24.659Z,42.95
2017-08-28T06:51:53.031Z,41.95
2017-08-28T06:54:21.450Z,42.19
2017-08-28T06:56:49.795Z,42.32
2017-08-28T06:59:18.235Z,43.84
2017-08-28T07:01:46.574Z,42.91
2017-08-28T07:04:14.943Z,42.60
2017-08-28T07:06:44.017Z,42.08
2017-08-28T07:09:12.406Z,42.98
2017-08-28T07:11:40.811Z,41.92
2017-08-28T07:14:09.143Z,43.81
2017-08-28T07:16:37.605Z,44.94
2017-08-28T07:19:05.967Z,45.26
2017-08-28T07:21:35.084Z,43.76
2017-08-28T07:24:03.474Z,47.89
2017-08-28T07:26:31.872Z,47.26
2017-08-28T07:29:00.260Z,44.94
2017-08-28T07:31:28.594Z,45.52
2017-08-28T07:34:02.795Z,44.79
2017-08-28T07:36:31.139Z,43.57
2017-08-28T07:38:59.479Z,45.15
2017-08-28T07:41:27.815Z,45.23
2017-08-28T07:43:56.231Z,46.33
2017-08-28T07:46:24.571Z,45.71
2017-08-28T07:48:52.939Z,43.30
2017-08-28T07:51:21.303Z,44.59
2017-08-28T07:53:49.641Z,44.90
2017-08-28T07:56:18.094Z,42.82
2017-08-28T07:58:46.435Z,42.98
2017-08-28T08:01:14.770Z,46.57
2017-08-28T08:03:43.106Z,45.24
2017-08-28T08:06:12.283Z,43.18
2017-08-28T08:08:40.612Z,43.63
2017-08-28T08:11:09.058Z,42.51
2017-08-28T08:13:37.399Z,41.67
2017-08-28T08:16:06.619Z,43.18
2017-08-28T08:18:35.713Z,43.05
2017-08-28T08:21:04.960Z,42.90
2017-08-28T08:23:33.882Z,42.40
2017-08-28T08:26:02.835Z,43.60
2017-08-28T08:28:31.362Z,41.88
2017-08-28T08:30:59.720Z,40.92
2017-08-28T08:33:33.686Z,42.52
2017-08-28T08:36:02.030Z,40.27
2017-08-28T08:38:30.363Z,41.07
2017-08-28T08:40:59.146Z,42.95
2017-08-28T08:43:27.531Z,41.13
2017-08-28T08:45:55.859Z,40.98
2017-08-28T08:48:24.223Z,41.82
2017-08-28T08:50:52.559Z,40.81
2017-08-28T08:53:20.895Z,40.05
2017-08-28T08:55:49.231Z,40.10
2017-08-28T08:58:17.567Z,40.80
2017-08-28T09:00:45.903Z,40.45
2017-08-28T09:03:14.239Z,39.48
2017-08-28T09:05:42.583Z,38.46
2017-08-28T09:08:10.919Z,42.37
2017-08-28T09:10:39.250Z,39.52
2017-08-28T09:13:07.587Z,41.01
2017-08-28T09:15:35.943Z,39.16
2017-08-28T09:18:04.315Z,38.78
2017-08-28T09:20:32.655Z,39.97
2017-08-28T09:23:00.991Z,40.44
2017-08-28T09:25:29.355Z,39.88
2017-08-28T09:27:57.691Z,38.88
2017-08-28T09:30:26.046Z,39.90
2017-08-28T09:32:54.490Z,38.72
2017-08-28T09:35:22.939Z,39.04
2017-08-28T09:37:51.282Z,39.04
2017-08-28T09:40:19.729Z,40.27
2017-08-28T09:42:48.117Z,40.77
2017-08-28T09:45:16.453Z,39.89
2017-08-28T09:47:44.895Z,39.30
2017-08-28T09:50:13.236Z,38.66
2017-08-28T09:52:41.597Z,40.03
2017-08-28T09:55:09.935Z,40.59
2017-08-28T09:57:38.280Z,41.00
2017-08-28T10:00:06.618Z,38.97
2017-08-28T10:02:34.966Z,39.73
2017-08-28T10:05:03.304Z,39.90
2017-08-28T10:07:31.643Z,39.17
2017-08-28T10:09:59.979Z,42.54
2017-08-28T10:12:28.601Z,40.00
2017-08-28T10:14:56.939Z,39.75
2017-08-28T10:17:25.278Z,41.05
2017-08-28T10:19:53.689Z,41.18
2017-08-28T10:22:22.071Z,39.20
2017-08-28T10:24:50.452Z,39.64
2017-08-28T10:27:18.223Z,38.95
2017-08-28T10:29:46.589Z,41.17
2017-08-28T10:32:14.923Z,40.08
2017-08-28T10:34:43.263Z,42.58
2017-08-28T10:37:11.628Z,40.82
2017-08-28T10:39:39.968Z,39.48
2017-08-28T10:42:08.315Z,41.32
2017-08-28T10:44:36.660Z,39.93
2017-08-28T10:47:05.032Z,37.92
2017-08-28T10:49:33.714Z,39.68
2017-08-28T10:52:02.052Z,39.44
2017-08-28T10:54:30.382Z,37.83
2017-08-28T10:56:58.723Z,38.57
2017-08-28T10:59:27.056Z,39.71
2017-08-28T11:01:55.394Z,40.07
2017-08-28T13:59:51.038Z,44.90
2017-08-28T14:02:19.408Z,44.99
2017-08-28T14:04:47.742Z,45.63
2017-08-28T14:07:16.102Z,45.58
2017-08-28T14:09:44.455Z,45.78
2017-08-28T14:12:12.794Z,45.97
2017-08-28T14:14:41.163Z,45.88
2017-08-28T14:17:09.526Z,46.38
2017-08-28T14:19:37.893Z,45.52
2017-08-28T14:22:06.262Z,45.85
2017-08-28T14:24:34.908Z,45.95
2017-08-28T14:27:03.295Z,46.05
2017-08-28T14:29:31.628Z,45.08
2017-08-28T14:31:59.967Z,46.30
2017-08-28T14:34:28.342Z,45.80
2017-08-28T14:36:56.696Z,45.26
2017-08-28T14:39:25.063Z,45.22
2017-08-28T14:41:53.505Z,46.60
2017-08-28T14:44:21.868Z,45.81
2017-08-28T14:46:50.272Z,45.63
2017-08-28T14:49:18.615Z,45.58
2017-08-28T14:51:46.979Z,46.87
2017-08-28T14:54:15.447Z,46.70
2017-08-28T14:56:43.867Z,45.50
2017-08-28T14:59:12.202Z,45.75
2017-08-28T15:01:40.655Z,44.80
2017-08-28T15:04:08.987Z,44.60
2017-08-28T15:06:37.357Z,45.50
2017-08-28T15:09:05.792Z,45.55
2017-08-28T15:11:34.211Z,44.71
2017-08-28T15:14:02.563Z,45.20
2017-08-28T15:16:30.966Z,46.54
2017-08-28T15:18:59.307Z,46.40
2017-08-28T15:21:27.671Z,44.75
2017-08-28T15:23:56.010Z,45.72
2017-08-28T15:26:24.372Z,44.69
2017-08-28T15:28:52.707Z,46.61
2017-08-28T15:31:21.080Z,46.83
2017-08-28T15:33:49.448Z,46.05
2017-08-28T15:36:17.808Z,47.08
2017-08-28T15:38:46.143Z,46.45
2017-08-28T15:41:14.600Z,46.39
2017-08-28T15:43:42.959Z,46.09
2017-08-28T15:46:11.315Z,45.44
2017-08-28T15:48:39.693Z,45.27
2017-08-28T15:51:08.040Z,46.06
2017-08-28T15:53:36.431Z,45.49
2017-08-28T15:56:04.843Z,46.33
2017-08-28T15:58:33.198Z,45.52
2017-08-28T16:01:01.571Z,46.81
2017-08-28T16:03:39.663Z,47.99
2017-08-28T16:06:08.003Z,47.31
2017-08-28T16:08:36.413Z,47.82
2017-08-28T16:11:05.023Z,48.22
2017-08-28T16:13:33.396Z,47.91
2017-08-28T16:16:01.730Z,48.39
2017-08-28T16:18:30.104Z,48.02
2017-08-28T16:20:58.459Z,48.18
2017-08-28T16:23:26.799Z,47.90
2017-08-28T16:25:55.168Z,47.89
2017-08-28T16:28:23.499Z,48.41
2017-08-28T16:30:51.868Z,48.09
2017-08-28T16:33:20.384Z,46.82
2017-08-28T16:35:48.746Z,47.23
2017-08-28T16:38:17.110Z,46.89
2017-08-28T16:40:45.443Z,47.04
2017-08-28T16:43:13.969Z,48.15
2017-08-28T16:45:42.308Z,48.06
2017-08-28T16:48:10.718Z,49.09
2017-08-28T16:50:39.063Z,50.05
2017-08-28T16:53:07.396Z,49.70
2017-08-28T16:55:35.764Z,49.79
2017-08-28T16:58:04.169Z,49.51
2017-08-28T17:00:32.547Z,50.32
2017-08-28T17:03:01.025Z,49.50
2017-08-28T17:05:29.971Z,49.45
2017-08-28T17:07:58.316Z,48.99
2017-08-28T17:10:26.658Z,50.23
2017-08-28T17:12:55.002Z,49.72
2017-08-28T17:15:23.343Z,51.25
2017-08-28T17:17:51.686Z,51.06
2017-08-28T17:20:20.697Z,52.56
2017-08-28T17:22:49.033Z,54.22
2017-08-28T17:25:17.439Z,56.24
2017-08-28T17:27:45.845Z,54.30
2017-08-28T17:30:14.224Z,53.60
2017-08-28T17:32:42.563Z,51.56
2017-08-28T17:35:10.935Z,50.91
2017-08-28T17:37:39.271Z,50.91
2017-08-28T17:40:07.607Z,51.10
2017-08-28T17:42:35.975Z,54.59
2017-08-28T17:45:04.342Z,55.54
2017-08-28T17:47:32.685Z,55.50
2017-08-28T17:50:01.010Z,54.26
2017-08-28T17:52:29.351Z,52.69
2017-08-28T17:54:57.693Z,54.75
2017-08-28T17:57:26.059Z,52.67
2017-08-28T17:59:54.403Z,54.88
2017-08-28T18:02:22.747Z,56.23
2017-08-28T18:04:51.119Z,56.62
2017-08-28T18:07:19.552Z,55.66
2017-08-28T18:09:47.883Z,56.46
2017-08-28T18:12:16.231Z,55.69
2017-08-28T18:14:44.644Z,59.14
2017-08-28T18:17:13.028Z,58.40
2017-08-28T18:19:41.423Z,52.79
2017-08-28T18:22:09.779Z,51.43
2017-08-28T18:24:38.197Z,53.13
2017-08-28T18:27:06.559Z,51.25
2017-08-28T18:29:34.906Z,49.08
2017-08-28T18:32:03.247Z,60.19
2017-08-28T18:34:31.595Z,61.93
2017-08-28T18:36:59.963Z,65.30
2017-08-28T18:39:28.306Z,63.22
2017-08-28T18:41:56.689Z,61.14
2017-08-28T18:44:25.030Z,57.82
2017-08-28T18:46:53.420Z,53.28
2017-08-28T18:49:21.773Z,50.78
2017-08-28T18:51:53.360Z,50.61
2017-08-28T18:54:22.052Z,53.33
2017-08-28T18:56:50.403Z,58.79
2017-08-28T18:59:18.744Z,57.10
2017-08-28T19:01:47.143Z,55.17
2017-08-28T19:04:15.519Z,52.24
2017-08-28T19:06:44.472Z,51.10
2017-08-28T19:09:12.809Z,49.25
2017-08-28T19:11:41.160Z,49.20
2017-08-28T19:14:09.501Z,49.16
2017-08-28T19:16:37.876Z,51.68
2017-08-28T19:19:06.220Z,48.88
2017-08-28T19:21:34.590Z,48.15
2017-08-28T19:24:02.946Z,47.64
2017-08-28T19:26:31.334Z,47.35
2017-08-28T19:28:59.685Z,47.80
2017-08-28T19:31:28.056Z,48.36
2017-08-28T19:33:59.851Z,48.32
2017-08-28T19:36:31.442Z,49.97
2017-08-28T19:38:59.784Z,50.28
2017-08-28T19:41:28.183Z,50.12
2017-08-28T19:43:56.550Z,50.13
2017-08-28T19:46:24.888Z,49.13
2017-08-28T19:48:53.226Z,48.54
2017-08-28T19:51:21.563Z,49.15
2017-08-28T19:53:49.902Z,48.57
2017-08-28T19:56:18.247Z,47.78
2017-08-28T19:58:46.620Z,47.82
2017-08-28T20:01:15.683Z,47.60
2017-08-28T20:03:44.072Z,51.30
2017-08-28T20:06:12.440Z,50.96
2017-08-28T20:08:40.824Z,49.80
2017-08-28T20:11:09.173Z,49.11
2017-08-28T20:13:37.509Z,50.06
2017-08-28T20:16:09.794Z,49.02
2017-08-28T20:18:38.139Z,48.06
2017-08-28T20:21:06.536Z,49.30
2017-08-28T20:23:34.885Z,48.31
2017-08-28T20:26:03.273Z,48.05
2017-08-28T20:28:31.625Z,47.54
2017-08-28T20:30:59.959Z,47.85
2017-08-28T20:33:28.335Z,47.25
2017-08-28T20:35:56.679Z,47.12
2017-08-28T20:38:25.027Z,47.31
2017-08-28T20:40:53.378Z,47.30
2017-08-28T20:43:21.741Z,47.11
2017-08-28T20:45:52.903Z,47.01
2017-08-28T20:48:21.288Z,46.81
2017-08-28T20:50:49.756Z,46.91
2017-08-28T20:53:18.096Z,46.96
2017-08-28T20:55:46.475Z,48.31
2017-08-28T20:58:14.840Z,48.22
2017-08-28T21:00:43.191Z,47.52
2017-08-28T21:03:11.526Z,47.36
2017-08-28T21:05:39.891Z,47.71
2017-08-28T21:08:08.237Z,48.49
2017-08-28T21:10:36.603Z,48.38
2017-08-28T21:13:04.959Z,47.25
2017-08-28T21:15:33.300Z,46.07
2017-08-28T21:18:01.668Z,48.54
2017-08-28T21:20:30.003Z,47.62
2017-08-28T21:22:58.370Z,47.47
2017-08-28T21:25:26.721Z,47.42
2017-08-28T21:27:57.480Z,47.00
2017-08-28T21:30:26.106Z,47.02
2017-08-28T21:32:54.448Z,47.69
2017-08-28T21:35:22.775Z,47.54
2017-08-28T21:37:51.439Z,51.20
2017-08-28T21:40:19.777Z,49.72
2017-08-28T21:42:48.272Z,48.46
2017-08-28T21:45:16.699Z,48.22
2017-08-28T21:47:45.076Z,48.87
2017-08-28T21:50:13.542Z,46.89
2017-08-28T21:52:41.887Z,49.42
2017-08-28T21:55:10.504Z,52.84
2017-08-28T21:57:38.895Z,50.35
2017-08-28T22:00:07.269Z,52.92
2017-08-28T22:02:35.631Z,49.03
2017-08-28T22:05:04.045Z,52.13
2017-08-28T22:07:32.377Z,58.27
2017-08-28T22:10:00.712Z,52.98
2017-08-28T22:12:29.055Z,51.79
2017-08-28T22:14:57.436Z,62.54
2017-08-28T22:17:25.786Z,55.29
2017-08-28T22:19:54.184Z,60.88
2017-08-28T22:22:22.535Z,64.49
2017-08-28T22:24:50.920Z,56.29
2017-08-28T22:27:19.258Z,53.39
2017-08-28T22:29:47.591Z,52.67
2017-08-28T22:32:15.988Z,50.14
2017-08-28T22:34:44.351Z,54.38
2017-08-28T22:37:12.697Z,51.45
2017-08-28T22:39:41.045Z,49.83
2017-08-28T22:42:09.379Z,50.43
2017-08-28T22:44:37.721Z,49.23
2017-08-28T22:47:06.059Z,47.01
2017-08-28T22:49:34.429Z,51.78
2017-08-28T22:52:02.811Z,50.87
2017-08-28T22:54:31.193Z,55.73
2017-08-28T22:56:59.569Z,50.51
2017-08-28T22:59:27.906Z,59.68
2017-08-28T23:01:56.322Z,56.20
2017-08-28T23:04:25.486Z,51.42
2017-08-28T23:06:53.847Z,56.73
2017-08-28T23:09:22.271Z,52.36
2017-08-28T23:11:50.612Z,53.04
2017-08-28T23:14:19.141Z,52.10
2017-08-28T23:16:47.481Z,48.80
2017-08-28T23:19:15.860Z,55.36
2017-08-28T23:21:44.311Z,53.51
2017-08-28T23:24:12.658Z,52.86
2017-08-28T23:26:41.024Z,50.47
2017-08-28T23:29:09.412Z,50.82
2017-08-28T23:31:37.793Z,49.96
2017-08-28T23:34:06.193Z,51.16
2017-08-28T23:36:34.524Z,52.26
2017-08-28T23:39:02.891Z,49.82
2017-08-28T23:41:31.308Z,48.50
2017-08-28T23:43:59.790Z,51.46
2017-08-28T23:46:28.171Z,52.16
2017-08-28T23:48:56.645Z,49.66
2017-08-28T23:51:25.037Z,51.81
2017-08-28T23:53:59.083Z,54.59
2017-08-28T23:56:27.423Z,51.98
2017-08-28T23:58:55.767Z,51.56
